Time;durP1;ratioP1;P1;durP2;ratioP2;P2;SDS_P1;SDS_P2;PMS_P1;PMS_P2;Temp;Humidity;BMP_temperature;BMP_pressure;BME280_temperature;BME280_humidity;BME280_pressure;Samples;Min_cycle;Max_cycle;Signal;HPM_P1;HPM_P2
2023/01/13 00:04:21;;;;;;;11.30;7.70;;;;;;;6.26;82.33;99356.43;208277;1279;139346;-63
2023/01/13 00:09:24;;;;;;;8.20;5.40;;;;;;;6.27;82.40;99352.48;209289;1279;140489;-64
2023/01/13 00:14:35;;;;;;;7.10;5.00;;;;;;;6.29;82.59;99346.67;209078;1286;140774;-63
2023/01/13 00:19:37;;;;;;;7.60;3.90;;;;;;;6.28;82.72;99342.20;209435;1278;139858;-64
2023/01/13 00:24:39;;;;;;;11.00;5.90;;;;;;;6.26;83.12;99338.39;207843;1286;141358;-66
2023/01/13 00:29:42;;;;;;;7.60;4.30;;;;;;;6.27;83.00;99339.40;207630;1285;141879;-67
2023/01/13 00:34:45;;;;;;;8.90;4.80;;;;;;;6.23;82.87;99337.02;210574;1294;140765;-66
2023/01/13 00:39:53;;;;;;;13.60;7.40;;;;;;;6.20;83.20;99336.15;209936;1294;139973;-67
2023/01/13 00:44:55;;;;;;;12.50;5.60;;;;;;;6.20;83.53;99324.91;210666;1292;140893;-67
2023/01/13 00:49:58;;;;;;;7.40;5.00;;;;;;;6.22;83.00;99316.84;210323;1294;140369;-67
2023/01/13 00:55:01;;;;;;;8.80;8.00;;;;;;;6.26;83.46;99307.25;207654;1294;140241;-67
2023/01/13 01:00:06;;;;;;;11.70;9.20;;;;;;;6.29;83.38;99305.42;208206;1286;151008;-68
2023/01/13 01:05:08;;;;;;;15.00;8.80;;;;;;;6.25;83.18;99299.42;208544;1291;141040;-67
2023/01/13 01:10:11;;;;;;;13.10;11.10;;;;;;;6.25;83.47;99293.64;208677;1285;141417;-63
2023/01/13 01:15:13;;;;;;;10.50;6.00;;;;;;;6.25;83.39;99290.80;208651;1292;141776;-63
2023/01/13 01:20:16;;;;;;;4.70;4.10;;;;;;;6.24;83.59;99285.10;208306;1285;140117;-66
2023/01/13 01:25:19;;;;;;;11.60;4.60;;;;;;;6.23;83.65;99279.52;208635;1286;151663;-63
2023/01/13 01:30:21;;;;;;;10.60;5.70;;;;;;;6.21;83.84;99273.48;208195;1292;224212;-67
2023/01/13 01:35:29;;;;;;;13.20;5.00;;;;;;;6.24;83.79;99273.66;208640;1278;142956;-65
2023/01/13 01:40:31;;;;;;;9.80;4.70;;;;;;;6.23;83.65;99270.58;208004;1294;150762;-63
2023/01/13 01:45:34;;;;;;;8.60;4.90;;;;;;;6.23;84.09;99265.92;209116;1282;141028;-62
2023/01/13 01:50:39;;;;;;;6.40;4.10;;;;;;;6.26;83.80;99259.35;208566;1285;140801;-65
2023/01/13 01:55:41;;;;;;;59.00;33.40;;;;;;;6.31;83.91;99247.70;209036;1286;140672;-66
2023/01/13 02:00:45;;;;;;;13.30;12.00;;;;;;;6.34;84.29;99243.03;210012;1294;140448;-64
2023/01/13 02:05:48;;;;;;;5.80;4.30;;;;;;;6.35;84.22;99238.38;208139;1292;140079;-67
2023/01/13 02:10:53;;;;;;;14.70;6.40;;;;;;;6.35;84.12;99240.73;209535;1285;140194;-66
2023/01/13 02:16:14;;;;;;;7.80;4.50;;;;;;;6.39;84.18;99236.27;208382;1278;211061;-65
2023/01/13 02:22:00;;;;;;;7.40;4.00;;;;;;;6.39;84.24;99239.11;208570;1292;235543;-62
2023/01/13 02:27:40;;;;;;;4.90;3.70;;;;;;;6.41;84.37;99239.63;209265;1285;245619;-62
2023/01/13 02:33:02;;;;;;;7.70;5.00;;;;;;;6.43;84.29;99231.35;209902;1285;141128;-64
2023/01/13 02:38:07;;;;;;;10.50;5.30;;;;;;;6.45;84.44;99222.41;210694;1295;140445;-65
2023/01/13 02:48:50;;;;;;;3.90;2.90;;;;;;;6.55;84.27;99212.05;210562;1292;140398;-67
2023/01/13 02:53:57;;;;;;;5.20;3.50;;;;;;;6.59;84.44;99207.11;209125;1292;141908;-69
2023/01/13 02:59:02;;;;;;;4.70;3.90;;;;;;;6.64;84.54;99203.71;208804;1292;140307;-68
2023/01/13 03:04:47;;;;;;;9.00;4.70;;;;;;;6.64;84.79;99196.70;208749;1292;139095;-68
2023/01/13 03:10:04;;;;;;;3.60;3.20;;;;;;;6.63;84.42;99197.00;209543;1294;140205;-68
2023/01/13 03:15:43;;;;;;;3.30;2.90;;;;;;;6.65;84.32;99195.42;208911;1286;141145;-65
2023/01/13 03:21:03;;;;;;;4.90;3.70;;;;;;;6.66;84.85;99187.02;209047;1295;141355;-67
2023/01/13 03:26:16;;;;;;;4.00;3.00;;;;;;;6.65;84.61;99187.78;208784;1288;139636;-66
2023/01/13 03:31:29;;;;;;;5.90;3.50;;;;;;;6.62;84.71;99186.91;208919;1294;141829;-67
2023/01/13 03:36:35;;;;;;;7.50;3.20;;;;;;;6.63;84.64;99191.50;208579;1294;140746;-67
2023/01/13 03:41:44;;;;;;;3.50;2.90;;;;;;;6.61;84.97;99190.27;209236;1295;140790;-67
2023/01/13 03:46:57;;;;;;;7.70;3.50;;;;;;;6.59;84.98;99193.70;208780;1285;141466;-67
2023/01/13 03:52:07;;;;;;;6.00;3.40;;;;;;;6.61;84.93;99194.09;209413;1293;207692;-67
2023/01/13 03:57:14;;;;;;;4.00;3.10;;;;;;;6.61;85.28;99189.98;208438;1285;139375;-67
2023/01/13 04:02:25;;;;;;;2.70;2.40;;;;;;;6.59;85.38;99187.88;208347;1298;236913;-68
2023/01/13 04:07:54;;;;;;;6.20;3.10;;;;;;;6.58;85.57;99180.80;208740;1286;140223;-66
2023/01/13 04:13:05;;;;;;;5.60;3.40;;;;;;;6.58;85.48;99184.06;208690;1291;140007;-68
2023/01/13 04:18:23;;;;;;;4.00;2.90;;;;;;;6.55;85.56;99179.54;207938;1278;140971;-66
2023/01/13 04:23:26;;;;;;;4.70;3.80;;;;;;;6.51;86.00;99180.91;210269;1292;140524;-66
2023/01/13 04:28:30;;;;;;;4.70;2.70;;;;;;;6.53;86.12;99181.52;210561;1295;140089;-67
2023/01/13 04:33:32;;;;;;;4.60;2.90;;;;;;;6.59;85.89;99178.91;210599;1287;140239;-67
2023/01/13 04:38:35;;;;;;;5.00;2.70;;;;;;;6.60;86.18;99178.16;208988;1292;140422;-65
2023/01/13 04:43:39;;;;;;;3.30;2.40;;;;;;;6.62;85.78;99181.29;209266;1294;230942;-67
2023/01/13 04:48:43;;;;;;;4.10;2.30;;;;;;;6.66;86.03;99188.17;208633;1293;210185;-66
2023/01/13 04:53:51;;;;;;;2.80;2.60;;;;;;;6.62;85.45;99186.74;208208;1294;151306;-67
2023/01/13 04:58:54;;;;;;;3.70;2.20;;;;;;;6.60;86.15;99192.56;209197;1286;141576;-67
2023/01/13 05:03:57;;;;;;;3.40;2.30;;;;;;;6.59;86.25;99196.71;208830;1285;140131;-66
2023/01/13 05:09:02;;;;;;;2.50;2.20;;;;;;;6.59;85.90;99196.60;208331;1294;141635;-66
2023/01/13 05:19:38;;;;;;;11.00;3.20;;;;;;;6.53;86.02;99190.23;208168;1285;222332;-66
2023/01/13 05:30:05;;;;;;;2.30;2.10;;;;;;;6.54;86.67;99190.38;207926;1294;140667;-66
2023/01/13 05:35:08;;;;;;;3.50;3.00;;;;;;;6.57;86.51;99191.52;208127;1295;139729;-65
2023/01/13 05:45:35;;;;;;;7.00;2.70;;;;;;;6.52;86.77;99187.07;209804;1285;244872;-67
2023/01/13 05:50:39;;;;;;;2.80;2.40;;;;;;;6.49;86.65;99186.36;208889;1284;140167;-67
2023/01/13 05:55:42;;;;;;;3.40;2.40;;;;;;;6.49;86.32;99185.71;209103;1292;140964;-66
2023/01/13 06:00:45;;;;;;;6.20;3.40;;;;;;;6.48;86.56;99184.73;207933;1292;141400;-66
2023/01/13 06:05:50;;;;;;;3.90;2.20;;;;;;;6.42;86.48;99186.48;209204;1294;139603;-68
2023/01/13 06:10:54;;;;;;;4.40;2.80;;;;;;;6.40;86.42;99189.42;209401;1290;140225;-67
2023/01/13 06:15:59;;;;;;;3.10;2.10;;;;;;;6.40;86.56;99186.65;207677;1285;140693;-66
2023/01/13 06:21:03;;;;;;;3.80;2.30;;;;;;;6.39;86.63;99186.25;207812;1284;140949;-67
2023/01/13 06:26:20;;;;;;;6.20;2.70;;;;;;;6.38;86.72;99188.58;209871;1294;142679;-68
2023/01/13 06:31:27;;;;;;;3.70;2.80;;;;;;;6.38;86.65;99192.01;209902;1292;140034;-66
2023/01/13 06:36:37;;;;;;;3.30;2.90;;;;;;;6.42;86.60;99191.94;210728;1298;140710;-67
2023/01/13 06:47:04;;;;;;;6.60;2.90;;;;;;;6.48;86.38;99197.82;209150;1283;139995;-67
2023/01/13 06:52:07;;;;;;;4.20;2.50;;;;;;;6.51;86.72;99197.38;207938;1298;139684;-67
2023/01/13 06:57:15;;;;;;;4.10;2.00;;;;;;;6.47;86.17;99197.78;209408;1292;140602;-67
2023/01/13 07:02:21;;;;;;;4.60;3.00;;;;;;;6.42;86.98;99196.02;209532;1298;139940;-67
2023/01/13 07:07:28;;;;;;;4.30;3.20;;;;;;;6.40;87.02;99200.21;208970;1291;139855;-67
2023/01/13 07:15:16;;;;;;;3.90;2.90;;;;;;;6.40;86.78;99196.83;209740;1291;141766;-67
2023/01/13 07:17:59;;;;;;;3.20;2.30;;;;;;;6.40;86.73;99192.39;208325;1292;142382;-66
2023/01/13 07:23:02;;;;;;;7.70;2.60;;;;;;;6.40;86.82;99193.65;208636;1298;139777;-67
2023/01/13 07:28:06;;;;;;;4.10;2.70;;;;;;;6.38;86.84;99192.33;208168;1292;141589;-66
2023/01/13 07:33:11;;;;;;;4.70;4.30;;;;;;;6.36;86.93;99198.09;208219;1285;141038;-67
2023/01/13 07:38:15;;;;;;;4.70;2.80;;;;;;;6.35;87.16;99198.05;208373;1295;141644;-66
2023/01/13 07:43:31;;;;;;;6.70;3.60;;;;;;;6.33;86.95;99200.27;208992;1286;139231;-66
2023/01/13 07:48:37;;;;;;;5.00;4.60;;;;;;;6.35;86.75;99197.58;208878;1293;140593;-67
2023/01/13 07:53:42;;;;;;;5.90;3.80;;;;;;;6.39;86.88;99196.27;208260;1288;139616;-67
2023/01/13 07:58:49;;;;;;;6.00;4.40;;;;;;;6.47;86.94;99198.80;209171;1293;141271;-66
2023/01/13 08:03:57;;;;;;;3.50;3.20;;;;;;;6.56;86.69;99205.52;208553;1300;141210;-66
2023/01/13 08:09:02;;;;;;;4.10;2.70;;;;;;;6.63;87.26;99206.42;209621;1286;140425;-67
2023/01/13 08:14:06;;;;;;;4.90;4.20;;;;;;;6.72;87.03;99209.60;210623;1277;143806;-67
2023/01/13 08:19:10;;;;;;;6.60;3.90;;;;;;;6.79;86.84;99213.63;209262;1295;141243;-67
2023/01/13 08:24:14;;;;;;;8.80;5.10;;;;;;;6.85;86.60;99208.46;208209;1292;141028;-67
2023/01/13 08:29:21;;;;;;;;;;;;;;;6.90;86.23;99209.83;210571;1284;222608;-67
2023/01/13 08:34:25;;;;;;;2.80;2.60;;;;;;;6.95;86.36;99206.67;210315;1286;311720;-68
2023/01/13 08:39:29;;;;;;;7.70;3.80;;;;;;;7.04;86.11;99210.52;210399;1298;140975;-67
2023/01/13 08:44:33;;;;;;;7.60;2.70;;;;;;;7.19;86.23;99206.50;208916;1284;140321;-67
2023/01/13 08:49:37;;;;;;;6.80;3.20;;;;;;;7.27;85.96;99212.30;209361;1293;140538;-67
2023/01/13 08:54:41;;;;;;;4.30;3.00;;;;;;;7.35;85.88;99216.30;209903;1286;142115;-66
2023/01/13 08:59:46;;;;;;;3.70;3.20;;;;;;;7.42;85.61;99217.17;208929;1279;142350;-67
2023/01/13 09:04:49;;;;;;;5.10;3.10;;;;;;;7.43;85.74;99222.50;209507;1300;139233;-67
2023/01/13 09:09:55;;;;;;;4.10;2.80;;;;;;;7.43;85.23;99227.48;208119;1285;140748;-64
2023/01/13 09:15:01;;;;;;;3.70;2.70;;;;;;;7.44;85.09;99220.45;208206;1278;221724;-67
2023/01/13 09:20:06;;;;;;;5.70;2.50;;;;;;;7.42;85.21;99215.86;208015;1285;141022;-68
2023/01/13 09:25:11;;;;;;;4.50;3.00;;;;;;;7.47;85.35;99210.09;208915;1293;139533;-67
2023/01/13 09:30:16;;;;;;;8.00;2.50;;;;;;;7.51;85.27;99207.74;208769;1286;140629;-68
2023/01/13 09:35:19;;;;;;;3.50;2.80;;;;;;;7.48;84.85;99205.55;208565;1287;142908;-68
2023/01/13 09:40:22;;;;;;;6.60;3.40;;;;;;;7.47;85.15;99208.17;208966;1291;140500;-66
2023/01/13 09:45:40;;;;;;;2.50;2.10;;;;;;;7.54;84.92;99204.48;207879;1285;140976;-67
2023/01/13 09:51:13;;;;;;;8.80;3.70;;;;;;;7.59;84.89;99203.91;208483;1292;140284;-67
2023/01/13 09:56:16;;;;;;;5.00;2.60;;;;;;;7.64;84.84;99198.84;208263;1286;139419;-66
2023/01/13 10:01:36;;;;;;;4.70;2.40;;;;;;;7.63;84.63;99198.63;208132;1286;140009;-67
2023/01/13 10:06:47;;;;;;;4.80;2.10;;;;;;;7.67;84.70;99202.50;209674;1286;140139;-68
2023/01/13 10:17:43;;;;;;;3.70;2.80;;;;;;;7.85;84.37;99195.73;208333;1284;140100;-67
2023/01/13 10:23:37;;;;;;;3.60;2.30;;;;;;;7.90;84.36;99188.02;209920;1296;140272;-67
2023/01/13 10:28:50;;;;;;;4.30;3.00;;;;;;;7.96;83.95;99187.64;209576;1286;140426;-67
2023/01/13 10:33:59;;;;;;;3.90;2.30;;;;;;;8.01;84.10;99183.18;210784;1298;140047;-68
2023/01/13 10:39:14;;;;;;;3.60;2.60;;;;;;;8.04;83.74;99174.88;210826;1295;139658;-67
2023/01/13 10:44:19;;;;;;;9.90;4.10;;;;;;;8.12;83.47;99168.41;210670;1293;141298;-67
2023/01/13 10:49:58;;;;;;;4.30;2.40;;;;;;;8.22;83.62;99168.27;210133;1294;140078;-67
2023/01/13 10:55:04;;;;;;;3.50;2.70;;;;;;;8.42;83.38;99166.37;209260;1297;140355;-68
2023/01/13 11:00:27;;;;;;;3.80;2.90;;;;;;;8.70;83.36;99164.61;208024;1285;142586;-69
2023/01/13 11:05:31;;;;;;;7.60;3.70;;;;;;;8.84;83.05;99163.59;210130;1295;139423;-71
2023/01/13 11:10:45;;;;;;;4.40;3.00;;;;;;;8.91;83.04;99160.15;208650;1284;139276;-67
2023/01/13 11:16:01;;;;;;;3.70;2.40;;;;;;;8.88;82.74;99157.02;209887;1286;141009;-67
2023/01/13 11:21:23;;;;;;;5.40;2.70;;;;;;;8.87;82.70;99156.83;209655;1294;140236;-67
2023/01/13 11:26:46;;;;;;;3.10;1.90;;;;;;;8.84;82.43;99159.71;210369;1294;140634;-67
2023/01/13 11:31:59;;;;;;;4.40;2.60;;;;;;;8.82;82.44;99154.73;207797;1292;140222;-68
2023/01/13 11:37:13;;;;;;;4.50;2.30;;;;;;;8.82;82.47;99157.50;208889;1295;139107;-68
2023/01/13 11:42:31;;;;;;;3.00;2.30;;;;;;;8.80;82.27;99155.39;207934;1281;140088;-68
2023/01/13 11:47:37;;;;;;;6.10;2.50;;;;;;;8.74;82.01;99154.31;208839;1284;234858;-67
2023/01/13 11:53:08;;;;;;;4.20;2.10;;;;;;;8.70;82.30;99147.53;207742;1285;140274;-68
2023/01/13 11:58:30;;;;;;;8.20;2.50;;;;;;;8.72;82.40;99145.81;207685;1285;141021;-68
2023/01/13 12:04:25;;;;;;;4.30;2.60;;;;;;;8.76;82.41;99140.73;207675;1278;144659;-68
2023/01/13 12:09:44;;;;;;;6.90;3.10;;;;;;;8.81;82.60;99148.40;209529;1284;247872;-69
2023/01/13 12:15:04;;;;;;;8.90;2.60;;;;;;;8.83;82.46;99139.45;207925;1292;140800;-68
2023/01/13 12:20:26;;;;;;;6.30;2.40;;;;;;;8.82;82.50;99135.48;207961;1292;141028;-67
2023/01/13 12:25:33;;;;;;;3.70;2.00;;;;;;;8.81;82.58;99137.50;208908;1286;143621;-67
2023/01/13 12:30:42;;;;;;;3.60;1.90;;;;;;;8.79;82.58;99141.98;208312;1292;140443;-68
2023/01/13 12:36:00;;;;;;;6.50;2.70;;;;;;;8.76;82.88;99142.83;210540;1295;139598;-67
2023/01/13 12:41:33;;;;;;;4.40;2.60;;;;;;;8.73;82.84;99138.55;208830;1292;141367;-68
2023/01/13 12:46:55;;;;;;;3.60;1.80;;;;;;;8.70;82.92;99136.80;209649;1286;142042;-68
2023/01/13 12:52:06;;;;;;;3.70;2.70;;;;;;;8.68;82.90;99134.69;208733;1284;141077;-69
2023/01/13 12:57:26;;;;;;;3.40;2.00;;;;;;;8.66;83.11;99127.32;208051;1284;139870;-68
2023/01/13 13:02:35;;;;;;;3.00;2.00;;;;;;;8.68;83.39;99129.16;207592;1284;139834;-68
2023/01/13 13:07:50;;;;;;;5.80;3.80;;;;;;;8.66;83.33;99125.71;208012;1279;141574;-68
2023/01/13 13:18:23;;;;;;;5.80;4.20;;;;;;;8.69;83.64;99125.14;208160;1286;141549;-68
2023/01/13 13:23:34;;;;;;;3.40;2.70;;;;;;;8.70;83.45;99120.17;208145;1284;209503;-68
2023/01/13 13:28:47;;;;;;;3.20;2.70;;;;;;;8.71;83.41;99126.66;208595;1282;140727;-68
2023/01/13 13:34:19;;;;;;;6.90;3.60;;;;;;;8.71;83.45;99127.36;207854;1285;139505;-68
2023/01/13 13:50:20;;;;;;;5.50;3.00;;;;;;;8.69;83.40;99131.20;209064;1292;139898;-67
2023/01/13 13:55:28;;;;;;;4.50;2.70;;;;;;;8.73;83.25;99142.39;210065;1295;140229;-68
2023/01/13 14:00:36;;;;;;;6.20;3.10;;;;;;;8.77;83.14;99140.55;208336;1292;140156;-67
2023/01/13 14:05:56;;;;;;;4.30;2.50;;;;;;;8.75;82.98;99140.47;209537;1292;139000;-68
2023/01/13 14:11:00;;;;;;;5.80;3.20;;;;;;;8.72;82.72;99141.88;207823;1292;139606;-67
2023/01/13 14:16:06;;;;;;;6.20;2.70;;;;;;;8.71;82.70;99146.11;209160;1288;139763;-68
2023/01/13 14:21:24;;;;;;;3.30;2.50;;;;;;;8.73;82.65;99146.70;209550;1292;140015;-67
2023/01/13 14:26:30;;;;;;;4.20;2.30;;;;;;;8.73;82.73;99146.23;210714;1294;142243;-69
2023/01/13 14:31:33;;;;;;;6.50;2.10;;;;;;;8.73;82.62;99149.46;210555;1302;140890;-68
2023/01/13 14:36:37;;;;;;;3.80;2.90;;;;;;;8.76;82.49;99154.92;210709;1295;140444;-68
2023/01/13 14:41:49;;;;;;;5.70;2.90;;;;;;;8.74;82.47;99157.25;209249;1285;140133;-68
2023/01/13 14:46:55;;;;;;;3.10;1.80;;;;;;;8.70;82.37;99159.17;209130;1300;140271;-69
2023/01/13 14:52:12;;;;;;;4.80;2.40;;;;;;;8.65;82.24;99160.17;209043;1289;140123;-66
2023/01/13 14:57:15;;;;;;;43.80;20.30;;;;;;;8.63;82.36;99163.60;208762;1294;250140;-69
2023/01/13 15:02:28;;;;;;;47.10;28.50;;;;;;;8.60;82.55;99164.27;208007;1295;140079;-69
2023/01/13 15:07:31;;;;;;;10.40;9.30;;;;;;;8.55;82.50;99166.52;208632;1286;140342;-68
2023/01/13 15:12:39;;;;;;;6.10;3.30;;;;;;;8.53;82.75;99173.14;207875;1292;141064;-69
2023/01/13 15:17:44;;;;;;;;;;;;;;;8.53;82.85;99171.65;208791;1294;246020;-68
2023/01/13 15:22:49;;;;;;;3.90;2.50;;;;;;;8.51;82.90;99170.61;208508;1291;127038;-66
2023/01/13 15:27:52;;;;;;;6.50;4.20;;;;;;;8.49;83.14;99173.22;207703;1278;140424;-68
2023/01/13 15:32:57;;;;;;;5.80;5.30;;;;;;;8.44;83.09;99178.27;208704;1286;140418;-67
2023/01/13 15:38:00;;;;;;;6.60;4.40;;;;;;;8.40;83.24;99181.43;208798;1285;141764;-69
2023/01/13 15:48:26;;;;;;;3.10;2.60;;;;;;;8.41;83.46;99189.84;207900;1288;139896;-68
2023/01/13 15:53:29;;;;;;;5.20;4.70;;;;;;;8.40;83.65;99194.59;207871;1285;139817;-70
2023/01/13 15:58:32;;;;;;;5.70;4.10;;;;;;;8.35;83.80;99198.02;209931;1295;139351;-69
2023/01/13 16:03:36;;;;;;;5.00;2.90;;;;;;;8.29;83.98;99200.11;209432;1285;150525;-67
2023/01/13 16:08:40;;;;;;;3.60;2.80;;;;;;;8.31;84.31;99197.06;208894;1292;140516;-70
2023/01/13 16:13:43;;;;;;;4.90;3.20;;;;;;;8.25;84.06;99192.38;210498;1291;141483;-66
2023/01/13 16:18:48;;;;;;;7.30;2.80;;;;;;;8.18;84.32;99199.67;210538;1284;140630;-69
2023/01/13 16:23:52;;;;;;;5.40;3.60;;;;;;;8.22;84.54;99204.12;210559;1300;140290;-69
2023/01/13 16:28:56;;;;;;;4.80;3.80;;;;;;;8.27;84.41;99209.89;209226;1286;140624;-69
2023/01/13 16:34:01;;;;;;;4.40;3.70;;;;;;;8.30;84.77;99217.91;209962;1271;140009;-66
2023/01/13 16:39:18;;;;;;;6.90;4.00;;;;;;;8.29;84.78;99225.03;208420;1287;139216;-69
2023/01/13 16:44:22;;;;;;;7.20;4.20;;;;;;;8.25;84.68;99227.17;208456;1285;141075;-68
2023/01/13 16:49:25;;;;;;;10.00;3.80;;;;;;;8.22;84.74;99229.02;208410;1284;140325;-68
2023/01/13 16:54:28;;;;;;;6.50;3.40;;;;;;;8.20;84.75;99237.57;208257;1285;139887;-66
2023/01/13 16:59:32;;;;;;;5.90;4.20;;;;;;;8.14;84.66;99238.96;207868;1284;140700;-67
2023/01/13 17:04:35;;;;;;;12.10;4.20;;;;;;;8.08;84.81;99238.48;207917;1292;141197;-68
2023/01/13 17:09:39;;;;;;;7.30;4.60;;;;;;;8.07;85.27;99242.80;207561;1284;139543;-67
2023/01/13 17:14:43;;;;;;;10.50;6.70;;;;;;;8.07;85.02;99238.91;208738;1285;140300;-67
2023/01/13 17:19:48;;;;;;;7.20;5.00;;;;;;;8.03;85.36;99237.91;207716;1285;139700;-67
2023/01/13 17:24:52;;;;;;;9.50;5.00;;;;;;;8.01;85.32;99238.02;207515;1284;140005;-68
2023/01/13 17:29:55;;;;;;;9.50;5.10;;;;;;;7.99;85.24;99243.34;208977;1285;140667;-68
2023/01/13 17:35:01;;;;;;;12.10;5.30;;;;;;;8.02;85.48;99245.20;207876;1286;140794;-67
2023/01/13 17:40:05;;;;;;;7.50;4.70;;;;;;;8.03;85.46;99248.09;207538;1284;141186;-69
2023/01/13 17:45:10;;;;;;;7.50;5.10;;;;;;;7.98;85.58;99254.57;208137;1292;140694;-67
2023/01/13 17:50:13;;;;;;;6.30;4.30;;;;;;;7.98;85.30;99257.86;209120;1292;140453;-68
2023/01/13 17:55:17;;;;;;;7.70;3.80;;;;;;;8.01;85.46;99264.94;209045;1294;141274;-66
2023/01/13 18:00:19;;;;;;;9.40;7.00;;;;;;;8.04;85.45;99268.36;207318;1284;140608;-68
2023/01/13 18:05:23;;;;;;;6.80;4.70;;;;;;;8.01;85.06;99275.08;207945;1284;139580;-68
2023/01/13 18:10:26;;;;;;;15.20;8.40;;;;;;;7.96;85.33;99279.09;207333;1284;141441;-67
2023/01/13 18:15:29;;;;;;;10.10;5.90;;;;;;;7.99;85.23;99295.56;207383;1285;141822;-68
2023/01/13 18:31:16;;;;;;;6.70;5.70;;;;;;;8.00;85.36;99304.40;210580;1293;139316;-66
2023/01/13 18:36:19;;;;;;;9.20;5.80;;;;;;;8.01;85.19;99310.60;209923;1278;139779;-70
2023/01/13 18:46:43;;;;;;;6.20;4.50;;;;;;;8.03;85.08;99313.71;207360;1279;246339;-67
2023/01/13 18:51:46;;;;;;;8.10;4.60;;;;;;;8.03;84.92;99313.41;208180;1286;142068;-69
2023/01/13 18:56:49;;;;;;;8.20;4.40;;;;;;;8.01;85.11;99308.10;208058;1285;142332;-67
2023/01/13 19:01:53;;;;;;;7.30;4.40;;;;;;;7.97;84.64;99313.63;207829;1278;139653;-66
2023/01/13 19:06:59;;;;;;;6.70;4.30;;;;;;;7.90;84.67;99313.89;207759;1284;140217;-69
2023/01/13 19:12:04;;;;;;;7.70;3.90;;;;;;;7.88;84.51;99325.39;207684;1292;140793;-69
2023/01/13 19:17:14;;;;;;;4.90;4.00;;;;;;;7.84;84.55;99329.81;209771;1294;140979;-69
2023/01/13 19:22:21;;;;;;;5.80;4.40;;;;;;;7.72;84.46;99332.79;207758;1286;141327;-66
2023/01/13 19:27:29;;;;;;;6.30;4.10;;;;;;;7.62;84.72;99334.08;208195;1292;139345;-66
2023/01/13 19:32:32;;;;;;;6.20;4.10;;;;;;;7.54;84.55;99338.52;208984;1286;140512;-67
2023/01/13 19:37:35;;;;;;;8.90;4.50;;;;;;;7.48;84.71;99336.36;207561;1285;141353;-67
2023/01/13 19:48:06;;;;;;;26.60;8.40;;;;;;;7.44;85.02;99353.36;209082;1285;139724;-66
2023/01/13 19:53:16;;;;;;;;;;;;;;;7.40;84.94;99362.05;207626;1285;140682;-67
2023/01/13 19:58:21;;;;;;;10.10;5.40;;;;;;;7.34;84.93;99363.68;208265;1292;126069;-66
2023/01/13 20:03:30;;;;;;;7.50;4.50;;;;;;;7.27;85.27;99368.55;209511;1292;140162;-66
2023/01/13 20:08:34;;;;;;;;;;;;;;;7.21;85.09;99377.40;209731;1288;142538;-65
2023/01/13 20:13:40;;;;;;;6.30;4.30;;;;;;;7.17;84.78;99387.06;211217;1286;209720;-66
2023/01/13 20:18:49;;;;;;;4.70;4.30;;;;;;;7.18;85.10;99395.42;210542;1293;141390;-66
2023/01/13 20:23:53;;;;;;;8.40;4.50;;;;;;;7.14;84.34;99401.41;209089;1295;152062;-66
2023/01/13 20:29:00;;;;;;;;;;;;;;;7.07;84.78;99408.77;210526;1291;248827;-66
2023/01/13 20:34:07;;;;;;;6.00;5.30;;;;;;;6.97;84.43;99417.94;210954;1299;530043;-67
2023/01/13 20:39:18;;;;;;;5.70;4.60;;;;;;;6.96;84.60;99419.58;209934;1301;139967;-66
2023/01/13 20:44:25;;;;;;;8.40;5.20;;;;;;;6.93;84.46;99420.26;207851;1291;140554;-68
2023/01/13 20:49:31;;;;;;;10.40;4.90;;;;;;;6.95;84.67;99423.74;209541;1292;141814;-68
2023/01/13 20:54:38;;;;;;;12.00;5.70;;;;;;;6.97;84.91;99424.59;208046;1291;142441;-68
2023/01/13 20:59:44;;;;;;;8.20;5.10;;;;;;;6.94;84.66;99423.11;208652;1286;140561;-68
2023/01/13 21:04:50;;;;;;;8.60;5.20;;;;;;;6.91;84.57;99423.83;208727;1285;142289;-66
2023/01/13 21:09:56;;;;;;;8.50;6.00;;;;;;;6.90;84.44;99423.48;207563;1285;140784;-65
2023/01/13 21:15:16;;;;;;;10.90;6.70;;;;;;;6.89;84.36;99429.95;208923;1290;140475;-66
2023/01/13 21:20:20;;;;;;;15.20;7.60;;;;;;;6.76;83.94;99437.52;207649;1291;141246;-66
2023/01/13 21:25:25;;;;;;;7.80;5.40;;;;;;;6.67;84.32;99448.98;207697;1294;139679;-66
2023/01/13 21:30:30;;;;;;;10.70;6.20;;;;;;;6.56;84.41;99457.98;208956;1292;140726;-65
2023/01/13 21:35:37;;;;;;;14.50;6.20;;;;;;;6.50;84.42;99462.92;207943;1286;139961;-64
2023/01/13 21:40:43;;;;;;;9.30;5.20;;;;;;;6.47;84.64;99462.72;208580;1292;139989;-67
2023/01/13 21:51:16;;;;;;;10.30;5.30;;;;;;;6.40;84.41;99461.15;208553;1291;140944;-68
2023/01/13 21:56:22;;;;;;;8.20;5.50;;;;;;;6.40;84.73;99456.48;208946;1292;139227;-65
2023/01/13 22:01:27;;;;;;;7.90;5.20;;;;;;;6.39;84.26;99460.15;208732;1290;141554;-67
2023/01/13 22:06:31;;;;;;;6.90;5.30;;;;;;;6.38;84.33;99463.66;208978;1291;140256;-66
2023/01/13 22:11:34;;;;;;;8.70;5.50;;;;;;;6.32;83.97;99466.05;209856;1286;139897;-65
2023/01/13 22:16:47;;;;;;;9.70;6.10;;;;;;;6.23;83.85;99469.45;209518;1288;139915;-67
2023/01/13 22:21:52;;;;;;;10.70;6.30;;;;;;;6.17;83.65;99467.92;210546;1294;139654;-66
2023/01/13 22:26:55;;;;;;;13.00;5.30;;;;;;;6.16;83.77;99472.16;209748;1291;140332;-66
2023/01/13 22:31:59;;;;;;;10.00;6.00;;;;;;;6.15;84.08;99468.48;210539;1299;140375;-66
2023/01/13 22:37:03;;;;;;;8.70;5.40;;;;;;;6.18;83.84;99468.20;208339;1292;139888;-67
2023/01/13 22:42:05;;;;;;;7.50;6.10;;;;;;;6.18;84.02;99482.66;209560;1285;140562;-68
2023/01/13 22:47:08;;;;;;;7.50;5.50;;;;;;;6.14;84.14;99488.88;208883;1291;139533;-68
2023/01/13 22:52:10;;;;;;;8.10;5.50;;;;;;;6.05;83.47;99489.91;208056;1288;140716;-65
2023/01/13 22:57:12;;;;;;;9.20;4.60;;;;;;;5.91;83.14;99491.36;208787;1285;140740;-65
2023/01/13 23:02:14;;;;;;;10.10;5.00;;;;;;;5.87;83.44;99500.49;207876;1291;139870;-67
2023/01/13 23:07:17;;;;;;;10.50;6.20;;;;;;;5.85;83.41;99503.83;207981;1285;140563;-68
2023/01/13 23:12:19;;;;;;;11.50;6.00;;;;;;;5.80;83.50;99508.54;207761;1284;140434;-65
2023/01/13 23:17:21;;;;;;;9.90;7.00;;;;;;;5.75;83.33;99510.56;207805;1284;140348;-65
2023/01/13 23:22:24;;;;;;;8.80;7.10;;;;;;;5.76;83.79;99514.88;208320;1292;234006;-67
2023/01/13 23:27:27;;;;;;;10.00;6.60;;;;;;;5.73;83.64;99514.08;208290;1300;139711;-67
2023/01/13 23:32:30;;;;;;;10.00;6.60;;;;;;;5.69;83.45;99517.48;207926;1285;141235;-67
2023/01/13 23:37:34;;;;;;;15.40;7.20;;;;;;;5.57;83.19;99513.45;208073;1291;236553;-68
2023/01/13 23:42:37;;;;;;;10.10;6.50;;;;;;;5.38;82.86;99517.92;209101;1294;141153;-67
2023/01/13 23:47:46;;;;;;;16.50;8.20;;;;;;;5.30;83.03;99517.62;208642;1293;140743;-68
2023/01/13 23:52:49;;;;;;;9.90;8.80;;;;;;;5.23;83.64;99523.14;209875;1291;139466;-64
2023/01/13 23:57:54;;;;;;;12.40;8.00;;;;;;;5.19;83.77;99528.95;209310;1295;139338;-68
